createdAt,value
2022-09-23T00:01:11.532Z,0.77
2022-09-23T00:03:42.086Z,1.10
2022-09-23T00:06:25.558Z,0.60
2022-09-23T00:08:52.913Z,0.70
2022-09-23T00:11:31.674Z,0.80
2022-09-23T00:14:03.571Z,0.95
2022-09-23T00:16:34.338Z,0.82
2022-09-23T00:19:02.938Z,0.85
2022-09-23T00:21:29.955Z,0.80
2022-09-23T00:24:02.023Z,1.20
2022-09-23T00:26:29.054Z,0.70
2022-09-23T00:28:55.940Z,0.88
2022-09-23T00:31:28.270Z,0.73
2022-09-23T00:33:58.299Z,0.70
2022-09-23T00:36:28.163Z,0.70
2022-09-23T00:38:58.251Z,0.80
2022-09-23T00:41:27.957Z,0.88
2022-09-23T00:44:00.549Z,0.80
2022-09-23T00:46:36.945Z,0.80
2022-09-23T00:49:10.077Z,0.95
2022-09-23T00:51:44.021Z,1.00
2022-09-23T00:54:11.506Z,0.88
2022-09-23T00:56:39.819Z,0.88
2022-09-23T00:59:09.680Z,0.90
2022-09-23T01:01:38.351Z,0.80
2022-09-23T01:04:08.054Z,0.95
2022-09-23T01:06:34.919Z,1.10
2022-09-23T01:09:01.828Z,1.00
2022-09-23T01:11:45.419Z,0.80
2022-09-23T01:14:32.172Z,1.02
2022-09-23T01:17:27.460Z,1.10
2022-09-23T01:20:11.027Z,0.80
2022-09-23T01:23:32.620Z,1.10
2022-09-23T01:26:27.203Z,1.13
2022-09-23T01:29:25.606Z,0.90
2022-09-23T01:32:05.565Z,0.80
2022-09-23T01:34:43.804Z,0.85
2022-09-23T01:37:24.752Z,0.85
2022-09-23T01:40:13.610Z,0.90
2022-09-23T01:42:54.977Z,0.82
2022-09-23T01:45:48.035Z,0.90
2022-09-23T01:48:34.257Z,0.95
2022-09-23T01:51:07.338Z,0.73
2022-09-23T01:54:06.642Z,1.17
2022-09-23T01:56:40.554Z,0.90
2022-09-23T01:59:39.245Z,0.90
2022-09-23T02:02:33.983Z,0.77
2022-09-23T02:05:22.099Z,1.02
2022-09-23T02:07:58.068Z,1.00
2022-09-23T02:10:48.869Z,0.82
2022-09-23T02:13:30.024Z,1.00
2022-09-23T02:16:05.958Z,1.10
2022-09-23T02:18:44.607Z,0.90
2022-09-23T02:21:12.926Z,0.98
2022-09-23T02:23:45.897Z,0.93
2022-09-23T02:26:28.680Z,0.80
2022-09-23T02:29:04.625Z,0.90
2022-09-23T02:31:49.229Z,0.80
2022-09-23T02:34:42.552Z,0.80
2022-09-23T02:37:32.778Z,0.90
2022-09-23T02:40:14.674Z,0.90
2022-09-23T02:43:13.991Z,1.05
2022-09-23T02:45:43.783Z,0.90
2022-09-23T02:48:25.186Z,1.10
2022-09-23T02:50:53.088Z,0.80
2022-09-23T02:53:22.491Z,1.00
2022-09-23T02:55:51.113Z,1.00
2022-09-23T02:58:18.285Z,1.08
2022-09-23T03:00:58.910Z,0.93
2022-09-23T03:04:05.205Z,0.85
2022-09-23T03:06:40.195Z,1.02
2022-09-23T03:09:31.400Z,1.05
2022-09-23T03:12:32.468Z,1.17
2022-09-23T03:15:18.345Z,1.10
2022-09-23T03:18:28.285Z,1.00
2022-09-23T03:21:03.860Z,1.02
2022-09-23T03:23:37.776Z,0.95
2022-09-23T03:26:18.789Z,0.90
2022-09-23T03:28:47.073Z,1.15
2022-09-23T03:31:17.731Z,1.00
2022-09-23T03:33:55.620Z,1.00
2022-09-23T03:36:51.993Z,1.13
2022-09-23T03:39:24.602Z,0.95
2022-09-23T03:41:55.170Z,1.05
2022-09-23T03:44:22.235Z,1.17
2022-09-23T03:46:52.272Z,1.00
2022-09-23T03:49:32.987Z,1.10
2022-09-23T03:52:01.018Z,0.90
2022-09-23T03:54:29.990Z,1.00
2022-09-23T03:56:58.329Z,0.80
2022-09-23T03:59:26.170Z,0.93
2022-09-23T04:01:54.085Z,1.00
2022-09-23T04:04:23.758Z,0.95
2022-09-23T04:06:50.589Z,2.25
2022-09-23T04:09:17.615Z,1.10
2022-09-23T04:11:44.451Z,1.10
2022-09-23T04:14:14.176Z,1.05
2022-09-23T04:16:41.067Z,1.10
2022-09-23T04:19:13.623Z,0.93
2022-09-23T04:21:41.853Z,0.93
2022-09-23T04:24:09.868Z,1.15
2022-09-23T04:26:39.786Z,1.13
2022-09-23T04:29:07.689Z,0.90
2022-09-23T04:31:35.114Z,0.93
2022-09-23T04:34:01.955Z,1.20
2022-09-23T04:36:30.452Z,1.10
2022-09-23T04:38:57.455Z,0.82
2022-09-23T04:41:27.005Z,1.00
2022-09-23T04:44:02.920Z,1.08
2022-09-23T04:46:30.245Z,1.20
2022-09-23T04:48:57.248Z,1.02
2022-09-23T04:51:26.109Z,0.90
2022-09-23T04:53:53.894Z,0.95
2022-09-23T04:56:24.165Z,1.08
2022-09-23T04:58:51.256Z,1.00
2022-09-23T05:01:27.089Z,0.90
2022-09-23T05:06:25.875Z,1.10
2022-09-23T05:09:00.678Z,0.95
2022-09-23T05:11:30.436Z,1.20
2022-09-23T05:13:57.601Z,1.20
2022-09-23T05:16:25.575Z,1.40
2022-09-23T05:18:53.029Z,1.20
2022-09-23T05:21:22.037Z,1.30
2022-09-23T05:23:58.075Z,1.42
2022-09-23T05:29:01.544Z,1.27
2022-09-23T05:31:30.258Z,1.00
2022-09-23T05:34:02.804Z,1.48
2022-09-23T05:36:37.896Z,1.58
2022-09-23T05:39:06.787Z,1.33
2022-09-23T05:41:34.114Z,1.20
2022-09-23T05:44:01.382Z,1.20
2022-09-23T05:46:30.541Z,1.10
2022-09-23T05:49:03.797Z,1.20
2022-09-23T05:51:35.782Z,1.10
2022-09-23T05:54:04.414Z,1.30
2022-09-23T05:56:34.978Z,1.27
2022-09-23T05:59:02.560Z,1.40
2022-09-23T06:01:33.569Z,1.20
2022-09-23T06:04:02.092Z,1.05
2022-09-23T06:06:32.256Z,1.05
2022-09-23T06:09:02.808Z,1.17
2022-09-23T06:11:31.247Z,1.17
2022-09-23T06:14:02.722Z,1.25
2022-09-23T06:16:32.784Z,1.17
2022-09-23T06:19:06.894Z,1.00
2022-09-23T06:21:38.686Z,1.65
2022-09-23T06:24:09.147Z,1.50
2022-09-23T06:26:37.967Z,2.42
2022-09-23T06:29:13.310Z,3.25
2022-09-23T06:31:43.624Z,5.50
2022-09-23T06:34:13.758Z,4.80
2022-09-23T06:36:46.431Z,2.85
2022-09-23T06:39:15.053Z,2.20
2022-09-23T06:41:45.596Z,1.90
2022-09-23T06:44:14.401Z,1.60
2022-09-23T06:46:41.683Z,1.23
2022-09-23T06:49:08.484Z,1.23
2022-09-23T06:51:35.506Z,1.15
2022-09-23T06:54:02.751Z,1.20
2022-09-23T06:56:31.566Z,1.30
2022-09-23T06:59:01.549Z,1.13
2022-09-23T07:01:28.455Z,1.35
2022-09-23T07:03:55.702Z,1.42
2022-09-23T07:06:23.047Z,1.40
2022-09-23T07:08:51.265Z,1.05
2022-09-23T07:11:22.345Z,1.38
2022-09-23T07:13:50.678Z,1.17
2022-09-23T07:16:18.057Z,1.27
2022-09-23T07:18:45.639Z,1.20
2022-09-23T07:21:15.981Z,1.52
2022-09-23T07:23:44.322Z,1.73
2022-09-23T07:26:11.470Z,1.63
2022-09-23T07:28:38.901Z,1.30
2022-09-23T07:31:09.848Z,1.42
2022-09-23T07:33:38.257Z,1.30
2022-09-23T07:36:11.598Z,1.40
2022-09-23T07:38:44.268Z,1.20
2022-09-23T07:41:15.123Z,1.20
2022-09-23T07:43:42.020Z,1.35
2022-09-23T07:46:15.190Z,2.25
2022-09-23T07:48:44.409Z,1.10
2022-09-23T07:51:21.948Z,1.20
2022-09-23T07:53:51.283Z,0.70
2022-09-23T07:56:23.458Z,1.10
2022-09-23T07:59:00.088Z,1.20
2022-09-23T08:01:29.565Z,1.05
2022-09-23T08:03:58.105Z,1.00
2022-09-23T08:06:24.952Z,1.20
2022-09-23T08:08:53.463Z,1.20
2022-09-23T08:11:20.764Z,1.05
2022-09-23T08:13:47.811Z,1.10
2022-09-23T08:16:17.012Z,1.10
2022-09-23T08:18:45.294Z,0.95
2022-09-23T08:21:15.463Z,0.95
2022-09-23T08:23:43.345Z,1.05
2022-09-23T08:26:20.133Z,1.00
2022-09-23T08:28:48.529Z,0.68
2022-09-23T08:31:15.583Z,0.90
2022-09-23T08:33:45.226Z,1.00
2022-09-23T08:36:12.301Z,0.80
2022-09-23T08:38:39.206Z,1.00
2022-09-23T08:41:28.112Z,1.20
2022-09-23T08:44:02.961Z,1.00
2022-09-23T08:46:43.613Z,0.90
2022-09-23T08:49:23.611Z,0.95
2022-09-23T08:51:54.837Z,0.90
2022-09-23T08:54:21.952Z,0.95
2022-09-23T08:56:52.410Z,0.93
2022-09-23T08:59:38.071Z,1.02
2022-09-23T09:02:19.938Z,1.00
2022-09-23T09:05:10.359Z,0.80
2022-09-23T09:07:43.998Z,1.00
2022-09-23T09:10:18.990Z,0.90
2022-09-23T09:12:49.353Z,1.00
2022-09-23T09:15:24.899Z,0.80
2022-09-23T09:17:57.016Z,1.05
2022-09-23T09:20:45.233Z,0.85
2022-09-23T09:23:31.023Z,0.93
2022-09-23T09:26:02.735Z,0.90
2022-09-23T09:28:47.545Z,0.80
2022-09-23T09:31:36.193Z,1.00
2022-09-23T09:34:11.378Z,0.88
2022-09-23T09:36:47.249Z,1.25
2022-09-23T09:39:15.963Z,1.00
2022-09-23T09:41:47.968Z,0.90
2022-09-23T09:44:42.464Z,0.90
2022-09-23T09:47:51.027Z,0.80
2022-09-23T09:50:46.026Z,0.80
2022-09-23T09:53:19.361Z,0.70
2022-09-23T09:56:08.220Z,1.02
2022-09-23T09:58:46.189Z,0.90
2022-09-23T10:01:29.899Z,1.00
2022-09-23T10:04:06.552Z,0.90
2022-09-23T10:06:35.759Z,0.82
2022-09-23T10:09:10.584Z,0.80
2022-09-23T10:11:38.613Z,1.00
2022-09-23T10:14:18.366Z,0.77
2022-09-23T10:16:48.789Z,0.70
2022-09-23T10:19:28.659Z,0.93
2022-09-23T10:21:59.803Z,0.82
2022-09-23T10:24:30.358Z,0.75
2022-09-23T10:27:07.792Z,0.60
2022-09-23T10:29:40.899Z,0.73
2022-09-23T10:32:36.282Z,0.90
2022-09-23T10:35:15.996Z,0.80
2022-09-23T10:37:50.431Z,0.65
2022-09-23T10:40:49.606Z,0.60
2022-09-23T10:43:51.262Z,0.55
2022-09-23T10:46:47.450Z,0.68
2022-09-23T10:49:37.830Z,0.63
2022-09-23T10:52:44.281Z,0.60
2022-09-23T10:55:24.187Z,0.60
2022-09-23T10:58:15.050Z,0.93
2022-09-23T11:01:05.406Z,0.70
2022-09-23T11:03:53.465Z,0.80
2022-09-23T11:06:33.986Z,0.82
2022-09-23T11:09:30.203Z,0.70
2022-09-23T11:12:36.727Z,0.50
2022-09-23T11:15:19.030Z,0.60
2022-09-23T11:18:03.473Z,0.85
2022-09-23T11:21:07.538Z,0.88
2022-09-23T11:24:07.030Z,0.60
2022-09-23T11:26:54.720Z,0.57
2022-09-23T11:29:49.529Z,0.50
2022-09-23T11:32:45.636Z,0.90
2022-09-23T11:35:48.535Z,0.60
2022-09-23T11:38:29.121Z,0.77
2022-09-23T11:41:03.277Z,0.57
2022-09-23T11:43:37.216Z,0.52
2022-09-23T11:46:32.221Z,0.85
2022-09-23T11:49:26.610Z,0.60
2022-09-23T11:52:14.562Z,0.60
2022-09-23T11:54:56.444Z,0.57
2022-09-23T11:57:52.530Z,0.60
2022-09-23T12:00:34.378Z,0.60
2022-09-23T12:03:40.408Z,0.55
2022-09-23T12:06:18.364Z,0.63
2022-09-23T12:08:45.455Z,0.50
2022-09-23T12:11:30.630Z,0.60
2022-09-23T12:14:19.483Z,0.60
2022-09-23T12:17:04.650Z,0.60
2022-09-23T12:19:51.742Z,0.80
2022-09-23T12:22:33.821Z,0.60
2022-09-23T12:25:16.386Z,0.50
2022-09-23T12:27:48.129Z,0.50
2022-09-23T12:30:28.363Z,0.50
2022-09-23T12:33:18.628Z,0.50
2022-09-23T12:35:46.550Z,0.70
2022-09-23T12:38:20.153Z,0.70
2022-09-23T12:40:52.292Z,0.52
2022-09-23T12:43:31.275Z,0.60
2022-09-23T12:46:17.827Z,0.60
2022-09-23T12:51:18.130Z,0.50
2022-09-23T12:53:47.915Z,0.60
2022-09-23T12:56:18.298Z,0.73
2022-09-23T12:58:44.929Z,0.50
2022-09-23T13:01:22.966Z,0.50
2022-09-23T13:04:13.765Z,0.50
2022-09-23T13:07:05.948Z,0.60
2022-09-23T13:09:46.661Z,0.52
2022-09-23T13:12:23.384Z,0.93
2022-09-23T13:14:53.405Z,0.70
2022-09-23T13:17:32.523Z,0.70
2022-09-23T13:20:19.564Z,0.60
2022-09-23T13:22:49.466Z,0.80
2022-09-23T13:25:21.853Z,0.77
2022-09-23T13:27:55.363Z,0.57
2022-09-23T13:30:26.983Z,0.60
2022-09-23T13:33:11.008Z,0.60
2022-09-23T13:35:42.812Z,0.60
2022-09-23T13:38:30.143Z,0.77
2022-09-23T13:41:00.845Z,0.55
2022-09-23T13:43:41.242Z,0.63
2022-09-23T13:46:20.026Z,0.60
2022-09-23T13:48:50.761Z,0.88
2022-09-23T13:51:34.952Z,0.60
2022-09-23T13:54:04.451Z,0.63
2022-09-23T13:56:36.692Z,0.70
2022-09-23T13:59:29.206Z,0.75
2022-09-23T14:02:12.889Z,0.60
2022-09-23T14:04:39.974Z,0.85
2022-09-23T14:07:08.857Z,0.60
2022-09-23T14:09:40.769Z,0.60
2022-09-23T14:12:10.268Z,0.68
2022-09-23T14:14:40.147Z,1.02
2022-09-23T14:17:17.574Z,0.80
2022-09-23T14:19:47.670Z,0.50
2022-09-23T14:22:26.333Z,0.90
2022-09-23T14:24:55.727Z,0.88
2022-09-23T14:27:33.348Z,0.57
2022-09-23T14:30:03.137Z,0.80
2022-09-23T14:32:30.907Z,0.80
2022-09-23T14:35:04.579Z,0.75
2022-09-23T14:38:03.779Z,0.85
2022-09-23T14:40:32.194Z,0.60
2022-09-23T14:43:22.107Z,0.80
2022-09-23T14:45:56.305Z,0.80
2022-09-23T14:48:26.130Z,0.82
2022-09-23T14:50:58.875Z,0.60
2022-09-23T14:53:49.261Z,1.05
2022-09-23T14:56:25.340Z,0.80
2022-09-23T15:01:39.483Z,0.82
2022-09-23T15:04:27.847Z,0.93
2022-09-23T15:07:16.866Z,0.95
2022-09-23T15:09:45.380Z,0.70
2022-09-23T15:12:15.690Z,0.70
2022-09-23T15:14:51.027Z,0.70
2022-09-23T15:17:22.998Z,1.07
2022-09-23T15:20:04.833Z,0.77
2022-09-23T15:22:31.714Z,0.73
2022-09-23T15:25:28.252Z,0.93
2022-09-23T15:28:12.464Z,1.00
2022-09-23T15:30:39.781Z,0.85
2022-09-23T15:33:29.824Z,0.85
2022-09-23T15:36:01.790Z,0.90
2022-09-23T15:38:28.734Z,0.60
2022-09-23T15:40:58.363Z,0.80
2022-09-23T15:43:26.834Z,0.88
2022-09-23T15:45:57.707Z,1.00
2022-09-23T15:48:46.449Z,1.10
2022-09-23T15:51:15.514Z,0.70
2022-09-23T15:53:42.688Z,0.80
2022-09-23T15:56:10.020Z,1.10
2022-09-23T15:58:36.807Z,0.70
2022-09-23T16:01:06.455Z,0.63
2022-09-23T16:03:34.332Z,0.80
2022-09-23T16:06:03.254Z,0.80
2022-09-23T16:08:32.785Z,0.80
2022-09-23T16:10:59.841Z,0.80
2022-09-23T16:13:28.794Z,0.82
2022-09-23T16:15:56.723Z,1.20
2022-09-23T16:18:24.314Z,1.00
2022-09-23T16:20:55.119Z,0.90
2022-09-23T16:23:37.800Z,0.98
2022-09-23T16:26:18.027Z,0.90
2022-09-23T16:28:46.561Z,0.70
2022-09-23T16:31:18.882Z,0.90
2022-09-23T16:33:51.352Z,1.00
2022-09-23T16:36:29.826Z,1.15
2022-09-23T16:39:03.148Z,1.10
2022-09-23T16:41:37.645Z,1.00
2022-09-23T16:44:07.590Z,0.70
2022-09-23T16:46:35.791Z,0.68
2022-09-23T16:53:21.122Z,0.85
2022-09-23T16:55:48.163Z,0.80
2022-09-23T16:58:14.993Z,1.10
2022-09-23T17:01:00.369Z,1.02
2022-09-23T17:03:41.154Z,1.50
2022-09-23T17:06:13.349Z,1.05
2022-09-23T17:08:43.423Z,0.95
2022-09-23T17:11:15.104Z,1.20
2022-09-23T17:13:45.099Z,1.27
2022-09-23T17:16:26.815Z,1.10
2022-09-23T17:19:03.717Z,1.23
2022-09-23T17:21:46.482Z,1.30
2022-09-23T17:24:13.550Z,1.25
2022-09-23T17:27:05.551Z,1.50
2022-09-23T17:47:11.548Z,1.42
2022-09-23T17:54:01.555Z,1.35
2022-09-23T18:01:46.808Z,1.95
2022-09-23T18:08:32.119Z,2.05
2022-09-23T18:10:59.011Z,2.00
2022-09-23T18:13:25.997Z,1.92
2022-09-23T18:15:55.360Z,2.00
2022-09-23T18:18:22.158Z,2.13
2022-09-23T18:20:48.992Z,2.03
2022-09-23T18:23:16.041Z,2.70
2022-09-23T18:25:43.024Z,2.22
2022-09-23T18:28:09.911Z,2.00
2022-09-23T18:30:36.908Z,2.60
2022-09-23T18:33:03.842Z,2.63
2022-09-23T18:35:30.802Z,2.53
2022-09-23T18:37:57.788Z,2.20
2022-09-23T18:40:24.925Z,2.60
2022-09-23T18:42:51.810Z,2.40
2022-09-23T18:45:18.703Z,2.38
2022-09-23T18:48:04.263Z,2.53
2022-09-23T18:50:40.422Z,2.60
2022-09-23T18:55:36.295Z,2.70
2022-09-23T18:58:03.507Z,2.60
2022-09-23T19:00:30.366Z,2.70
2022-09-23T19:02:57.759Z,2.75
2022-09-23T19:05:24.789Z,2.75
2022-09-23T19:07:51.699Z,2.90
2022-09-23T19:10:19.278Z,2.60
2022-09-23T19:12:46.672Z,3.00
2022-09-23T19:15:16.311Z,2.70
2022-09-23T19:17:46.850Z,2.90
2022-09-23T19:20:13.589Z,3.22
2022-09-23T19:22:45.642Z,3.42
2022-09-23T19:25:19.917Z,3.60
2022-09-23T19:27:48.570Z,3.50
2022-09-23T19:30:16.039Z,3.85
2022-09-23T19:32:45.007Z,4.97
2022-09-23T19:35:18.636Z,5.10
2022-09-23T19:37:51.795Z,5.40
2022-09-23T19:40:18.882Z,5.15
2022-09-23T19:42:46.154Z,4.10
2022-09-23T19:45:17.333Z,3.63
2022-09-23T19:47:44.414Z,4.20
2022-09-23T19:50:11.263Z,3.92
2022-09-23T19:52:38.608Z,4.15
2022-09-23T19:55:06.782Z,3.83
2022-09-23T19:57:34.129Z,3.78
2022-09-23T20:00:08.198Z,4.10
2022-09-23T20:02:39.150Z,3.75
2022-09-23T20:05:06.384Z,3.90
2022-09-23T20:07:34.239Z,4.53
2022-09-23T20:10:01.185Z,4.13
2022-09-23T20:12:29.170Z,4.20
2022-09-23T20:14:55.939Z,3.85
2022-09-23T20:17:22.878Z,3.72
2022-09-23T20:19:49.610Z,3.80
2022-09-23T20:22:33.191Z,3.58
2022-09-23T20:25:04.529Z,3.80
2022-09-23T20:27:32.714Z,3.30
2022-09-23T20:30:00.828Z,3.85
2022-09-23T20:32:31.671Z,3.83
2022-09-23T20:35:01.347Z,4.05
2022-09-23T20:37:28.523Z,4.43
2022-09-23T20:39:57.672Z,4.60
2022-09-23T20:42:24.661Z,5.55
2022-09-23T20:44:53.622Z,5.75
2022-09-23T20:47:23.918Z,5.45
2022-09-23T20:49:51.289Z,4.40
2022-09-23T20:52:22.165Z,4.75
2022-09-23T20:54:51.515Z,4.80
2022-09-23T20:57:20.297Z,4.35
2022-09-23T20:59:49.837Z,4.80
2022-09-23T21:02:19.723Z,4.38
2022-09-23T21:04:46.619Z,3.92
2022-09-23T21:07:13.369Z,3.95
2022-09-23T21:09:43.398Z,3.60
2022-09-23T21:12:10.260Z,3.72
2022-09-23T21:14:37.191Z,3.03
2022-09-23T21:17:04.102Z,3.10
2022-09-23T21:19:31.420Z,3.00
2022-09-23T21:22:01.124Z,3.30
2022-09-23T21:27:23.544Z,3.67
2022-09-23T21:29:53.434Z,3.20
2022-09-23T21:32:21.285Z,3.42
2022-09-23T21:34:51.193Z,3.38
2022-09-23T21:37:18.122Z,3.58
2022-09-23T21:40:08.199Z,3.38
2022-09-23T21:42:38.098Z,3.25
2022-09-23T21:45:06.183Z,3.38
2022-09-23T21:47:33.031Z,4.13
2022-09-23T21:50:04.160Z,3.60
2022-09-23T21:52:30.915Z,4.50
2022-09-23T21:55:00.214Z,5.13
2022-09-23T21:57:30.462Z,4.78
2022-09-23T21:59:57.274Z,3.72
2022-09-23T22:02:30.168Z,4.00
2022-09-23T22:04:57.034Z,4.20
2022-09-23T22:07:24.141Z,3.58
2022-09-23T22:09:51.250Z,3.90
2022-09-23T22:12:18.346Z,3.90
2022-09-23T22:14:47.176Z,4.00
2022-09-23T22:17:18.073Z,3.47
2022-09-23T22:19:47.414Z,3.70
2022-09-23T22:22:16.545Z,3.95
2022-09-23T22:24:45.002Z,3.35
2022-09-23T22:27:17.092Z,3.33
2022-09-23T22:30:02.488Z,3.75
2022-09-23T22:32:35.840Z,3.30
2022-09-23T22:35:03.636Z,3.40
2022-09-23T22:37:36.229Z,3.95
2022-09-23T22:40:14.961Z,3.60
2022-09-23T22:42:43.239Z,3.17
2022-09-23T22:45:14.680Z,3.10
2022-09-23T22:47:45.625Z,3.00
2022-09-23T22:50:14.384Z,3.55
2022-09-23T22:52:50.867Z,3.63
2022-09-23T22:55:30.593Z,3.50
2022-09-23T22:58:03.681Z,3.78
2022-09-23T23:00:42.238Z,4.03
2022-09-23T23:03:09.053Z,3.75
2022-09-23T23:05:35.977Z,4.40
2022-09-23T23:08:02.837Z,3.78
2022-09-23T23:10:29.950Z,3.38
2022-09-23T23:13:01.890Z,3.05
2022-09-23T23:15:28.970Z,3.00
2022-09-23T23:17:59.107Z,3.10
2022-09-23T23:20:26.055Z,3.00
2022-09-23T23:22:55.281Z,2.80
2022-09-23T23:25:22.122Z,2.67
2022-09-23T23:27:48.837Z,3.17
2022-09-23T23:30:15.698Z,2.80
2022-09-23T23:32:44.749Z,3.20
2022-09-23T23:35:12.478Z,2.95
2022-09-23T23:37:42.405Z,3.08
2022-09-23T23:40:10.212Z,3.20
2022-09-23T23:42:39.133Z,2.90
2022-09-23T23:45:08.635Z,3.03
2022-09-23T23:47:35.945Z,3.08
2022-09-23T23:50:04.413Z,2.70
2022-09-23T23:52:31.243Z,2.83
2022-09-23T23:54:59.548Z,2.50
2022-09-23T23:57:26.202Z,3.08
2022-09-23T23:59:53.085Z,2.83
